Terminal Aerodrome Forecast
Issued by NWS Grand Junction, CO

Home | Current Version | Previous Version | Text Only | Print | Product List | Glossary On
Versions: 1 2 3 4 5 6 7 8 9 10 11 12 13 14 15 16 17 18 19 20 21 22 23 24 25 26 27 28 29 30 31 32 33 34 35 36 37 38 39
000
FTUS45 KGJT 080539
TAFGJT
TAF
KGJT 080539Z 0806/0906 12012KT P6SM VCTS SCT060CB BKN100
      TEMPO 0806/0809 VRB15G25KT P6SM -TSRA BKN050CB OVC080
     FM080900 11008KT P6SM BKN080
     FM081700 15007KT P6SM VCTS SCT060CB BKN080
      TEMPO 0818/0822 VRB15G25KT TSRA BKN060CB
     FM090300 11007KT P6SM VCSH SCT060 BKN080=

USA.gov is the U.S. government's official web portal to all federal, state and local government web resources and services.